sensor_id;sensor_type;location;lat;lon;timestamp;pressure;altitude;pressure_sealevel;temperature;humidity
22020;BME280;51298;53.362;-1.518;2024-03-29T00:00:08;95477.50;;;5.38;89.47
22020;BME280;51298;53.362;-1.518;2024-03-29T00:02:41;95486.28;;;5.37;88.92
22020;BME280;51298;53.362;-1.518;2024-03-29T00:05:28;95484.81;;;5.41;88.02
22020;BME280;51298;53.362;-1.518;2024-03-29T00:08:06;95495.59;;;5.38;87.55
22020;BME280;51298;53.362;-1.518;2024-03-29T00:10:53;95511.78;;;5.33;87.02
22020;BME280;51298;53.362;-1.518;2024-03-29T00:13:26;95520.88;;;5.24;87.07
22020;BME280;51298;53.362;-1.518;2024-03-29T00:16:14;95514.75;;;5.19;86.42
22020;BME280;51298;53.362;-1.518;2024-03-29T00:18:48;95537.56;;;5.10;86.68
22020;BME280;51298;53.362;-1.518;2024-03-29T00:21:38;95540.00;;;5.05;86.54
22020;BME280;51298;53.362;-1.518;2024-03-29T00:24:12;95555.59;;;4.98;86.65
22020;BME280;51298;53.362;-1.518;2024-03-29T00:26:59;95569.97;;;4.94;86.44
22020;BME280;51298;53.362;-1.518;2024-03-29T00:29:35;95559.63;;;4.94;86.64
22020;BME280;51298;53.362;-1.518;2024-03-29T00:32:22;95570.81;;;4.88;86.11
22020;BME280;51298;53.362;-1.518;2024-03-29T00:34:55;95579.31;;;4.77;86.33
22020;BME280;51298;53.362;-1.518;2024-03-29T00:37:42;95578.34;;;4.71;85.59
22020;BME280;51298;53.362;-1.518;2024-03-29T00:40:16;95573.31;;;4.58;86.59
22020;BME280;51298;53.362;-1.518;2024-03-29T00:43:04;95591.88;;;4.48;86.69
22020;BME280;51298;53.362;-1.518;2024-03-29T00:45:37;95571.84;;;4.44;86.21
22020;BME280;51298;53.362;-1.518;2024-03-29T00:48:23;95592.97;;;4.34;86.27
22020;BME280;51298;53.362;-1.518;2024-03-29T00:50:56;95598.00;;;4.29;86.68
22020;BME280;51298;53.362;-1.518;2024-03-29T00:53:42;95589.88;;;4.25;86.01
22020;BME280;51298;53.362;-1.518;2024-03-29T00:56:15;95602.41;;;4.22;85.36
22020;BME280;51298;53.362;-1.518;2024-03-29T00:59:03;95604.97;;;4.22;85.55
22020;BME280;51298;53.362;-1.518;2024-03-29T01:01:36;95613.38;;;4.17;85.06
22020;BME280;51298;53.362;-1.518;2024-03-29T01:04:27;95625.25;;;4.25;84.49
22020;BME280;51298;53.362;-1.518;2024-03-29T01:07:04;95624.50;;;4.18;84.62
22020;BME280;51298;53.362;-1.518;2024-03-29T01:09:51;95635.03;;;4.16;84.40
22020;BME280;51298;53.362;-1.518;2024-03-29T01:12:25;95645.56;;;4.14;84.04
22020;BME280;51298;53.362;-1.518;2024-03-29T01:15:15;95650.31;;;4.18;83.89
22020;BME280;51298;53.362;-1.518;2024-03-29T01:17:48;95668.56;;;4.23;83.14
22020;BME280;51298;53.362;-1.518;2024-03-29T01:20:35;95683.50;;;4.14;83.87
22020;BME280;51298;53.362;-1.518;2024-03-29T01:23:09;95682.38;;;4.03;84.47
22020;BME280;51298;53.362;-1.518;2024-03-29T01:25:55;95679.38;;;4.06;84.52
22020;BME280;51298;53.362;-1.518;2024-03-29T01:28:28;95685.16;;;4.08;84.44
22020;BME280;51298;53.362;-1.518;2024-03-29T01:31:15;95681.78;;;4.08;84.74
22020;BME280;51298;53.362;-1.518;2024-03-29T01:33:49;95687.34;;;4.05;85.12
22020;BME280;51298;53.362;-1.518;2024-03-29T01:36:38;95682.22;;;3.98;85.27
22020;BME280;51298;53.362;-1.518;2024-03-29T01:39:11;95685.38;;;4.00;85.49
22020;BME280;51298;53.362;-1.518;2024-03-29T01:41:59;95688.13;;;4.05;85.24
22020;BME280;51298;53.362;-1.518;2024-03-29T01:44:36;95701.81;;;4.12;85.48
22020;BME280;51298;53.362;-1.518;2024-03-29T01:47:23;95694.84;;;4.13;84.81
22020;BME280;51298;53.362;-1.518;2024-03-29T01:49:56;95714.53;;;4.07;85.67
22020;BME280;51298;53.362;-1.518;2024-03-29T01:52:43;95714.97;;;4.04;85.95
22020;BME280;51298;53.362;-1.518;2024-03-29T01:55:17;95720.53;;;4.01;85.96
22020;BME280;51298;53.362;-1.518;2024-03-29T01:58:05;95724.50;;;4.04;86.98
22020;BME280;51298;53.362;-1.518;2024-03-29T02:00:48;95722.09;;;4.09;88.00
22020;BME280;51298;53.362;-1.518;2024-03-29T02:03:36;95719.34;;;3.97;87.81
22020;BME280;51298;53.362;-1.518;2024-03-29T02:06:10;95726.31;;;3.97;87.80
22020;BME280;51298;53.362;-1.518;2024-03-29T02:08:56;95733.69;;;3.93;87.83
22020;BME280;51298;53.362;-1.518;2024-03-29T02:11:29;95727.50;;;3.94;88.42
22020;BME280;51298;53.362;-1.518;2024-03-29T02:14:17;95724.13;;;3.94;88.13
22020;BME280;51298;53.362;-1.518;2024-03-29T02:16:50;95720.38;;;3.96;88.77
22020;BME280;51298;53.362;-1.518;2024-03-29T02:19:37;95731.47;;;3.97;88.96
22020;BME280;51298;53.362;-1.518;2024-03-29T02:22:14;95740.59;;;3.99;88.92
22020;BME280;51298;53.362;-1.518;2024-03-29T02:25:04;95738.00;;;3.99;88.68
22020;BME280;51298;53.362;-1.518;2024-03-29T02:27:38;95741.59;;;3.98;88.64
22020;BME280;51298;53.362;-1.518;2024-03-29T02:30:25;95746.78;;;3.91;88.45
22020;BME280;51298;53.362;-1.518;2024-03-29T02:33:21;95750.56;;;3.89;89.47
22020;BME280;51298;53.362;-1.518;2024-03-29T02:36:25;95759.69;;;3.91;89.50
22020;BME280;51298;53.362;-1.518;2024-03-29T02:39:18;95764.66;;;3.93;88.66
22020;BME280;51298;53.362;-1.518;2024-03-29T02:42:25;95765.84;;;3.90;89.61
22020;BME280;51298;53.362;-1.518;2024-03-29T02:45:20;95773.41;;;3.92;89.33
22020;BME280;51298;53.362;-1.518;2024-03-29T02:48:26;95776.41;;;3.82;89.29
22020;BME280;51298;53.362;-1.518;2024-03-29T02:51:20;95776.00;;;3.79;89.83
22020;BME280;51298;53.362;-1.518;2024-03-29T02:54:27;95783.75;;;3.85;89.29
22020;BME280;51298;53.362;-1.518;2024-03-29T02:57:21;95789.72;;;3.79;89.21
22020;BME280;51298;53.362;-1.518;2024-03-29T03:00:27;95791.88;;;3.82;89.52
22020;BME280;51298;53.362;-1.518;2024-03-29T03:03:26;95796.84;;;3.84;89.17
22020;BME280;51298;53.362;-1.518;2024-03-29T03:06:34;95814.34;;;3.82;89.19
22020;BME280;51298;53.362;-1.518;2024-03-29T03:09:28;95813.56;;;3.75;89.49
22020;BME280;51298;53.362;-1.518;2024-03-29T03:12:53;95816.34;;;3.73;89.45
22020;BME280;51298;53.362;-1.518;2024-03-29T03:15:47;95819.31;;;3.63;89.74
22020;BME280;51298;53.362;-1.518;2024-03-29T03:18:55;95821.72;;;3.58;90.06
22020;BME280;51298;53.362;-1.518;2024-03-29T03:21:50;95829.84;;;3.49;89.75
22020;BME280;51298;53.362;-1.518;2024-03-29T03:24:57;95823.91;;;3.41;90.35
22020;BME280;51298;53.362;-1.518;2024-03-29T03:27:51;95829.84;;;3.42;90.29
22020;BME280;51298;53.362;-1.518;2024-03-29T03:30:57;95840.97;;;3.36;90.70
22020;BME280;51298;53.362;-1.518;2024-03-29T03:33:50;95837.41;;;3.37;90.62
22020;BME280;51298;53.362;-1.518;2024-03-29T03:36:57;95848.31;;;3.39;90.61
22020;BME280;51298;53.362;-1.518;2024-03-29T03:39:52;95855.28;;;3.32;90.87
22020;BME280;51298;53.362;-1.518;2024-03-29T03:42:57;95858.63;;;3.26;90.47
22020;BME280;51298;53.362;-1.518;2024-03-29T03:45:51;95855.44;;;3.30;90.71
22020;BME280;51298;53.362;-1.518;2024-03-29T03:48:59;95863.38;;;3.22;90.87
22020;BME280;51298;53.362;-1.518;2024-03-29T03:51:52;95867.56;;;3.23;90.96
22020;BME280;51298;53.362;-1.518;2024-03-29T03:54:59;95879.28;;;3.19;91.50
22020;BME280;51298;53.362;-1.518;2024-03-29T03:57:53;95879.44;;;3.17;91.44
22020;BME280;51298;53.362;-1.518;2024-03-29T04:01:04;95879.44;;;3.17;91.88
22020;BME280;51298;53.362;-1.518;2024-03-29T04:03:57;95881.03;;;3.18;91.53
22020;BME280;51298;53.362;-1.518;2024-03-29T04:07:04;95886.19;;;3.18;92.56
22020;BME280;51298;53.362;-1.518;2024-03-29T04:09:57;95887.19;;;3.24;91.29
22020;BME280;51298;53.362;-1.518;2024-03-29T04:13:04;95900.09;;;3.17;91.66
22020;BME280;51298;53.362;-1.518;2024-03-29T04:16:05;95897.31;;;3.19;91.49
22020;BME280;51298;53.362;-1.518;2024-03-29T04:19:12;95909.00;;;3.22;91.45
22020;BME280;51298;53.362;-1.518;2024-03-29T04:22:06;95910.22;;;3.19;91.65
22020;BME280;51298;53.362;-1.518;2024-03-29T04:25:14;95913.94;;;3.10;91.68
22020;BME280;51298;53.362;-1.518;2024-03-29T04:28:07;95925.06;;;3.10;91.58
22020;BME280;51298;53.362;-1.518;2024-03-29T04:31:14;95936.94;;;3.05;92.18
22020;BME280;51298;53.362;-1.518;2024-03-29T04:34:08;95935.72;;;2.94;91.95
22020;BME280;51298;53.362;-1.518;2024-03-29T04:37:16;95927.78;;;2.89;92.23
22020;BME280;51298;53.362;-1.518;2024-03-29T04:40:11;95938.28;;;2.81;92.45
22020;BME280;51298;53.362;-1.518;2024-03-29T04:43:25;95946.97;;;2.73;93.08
22020;BME280;51298;53.362;-1.518;2024-03-29T04:46:19;95955.50;;;2.74;93.16
22020;BME280;51298;53.362;-1.518;2024-03-29T04:49:26;95957.81;;;2.62;93.65
22020;BME280;51298;53.362;-1.518;2024-03-29T04:52:32;95967.88;;;2.57;93.63
22020;BME280;51298;53.362;-1.518;2024-03-29T04:55:39;95971.03;;;2.52;93.41
22020;BME280;51298;53.362;-1.518;2024-03-29T04:58:33;95967.47;;;2.53;93.83
22020;BME280;51298;53.362;-1.518;2024-03-29T05:01:40;95983.75;;;2.60;94.14
22020;BME280;51298;53.362;-1.518;2024-03-29T05:04:36;95975.22;;;2.60;93.69
22020;BME280;51298;53.362;-1.518;2024-03-29T05:07:44;95988.56;;;2.70;93.53
22020;BME280;51298;53.362;-1.518;2024-03-29T05:10:43;95984.38;;;2.62;93.37
22020;BME280;51298;53.362;-1.518;2024-03-29T05:13:49;95987.53;;;2.64;93.75
22020;BME280;51298;53.362;-1.518;2024-03-29T05:16:43;95997.25;;;2.62;93.23
22020;BME280;51298;53.362;-1.518;2024-03-29T05:19:49;95987.28;;;2.53;93.29
22020;BME280;51298;53.362;-1.518;2024-03-29T05:22:43;95997.00;;;2.57;93.73
22020;BME280;51298;53.362;-1.518;2024-03-29T05:25:49;96006.50;;;2.50;93.67
22020;BME280;51298;53.362;-1.518;2024-03-29T05:28:42;96002.56;;;2.54;93.73
22020;BME280;51298;53.362;-1.518;2024-03-29T05:31:49;96016.81;;;2.50;93.80
22020;BME280;51298;53.362;-1.518;2024-03-29T05:34:43;96021.75;;;2.52;93.95
22020;BME280;51298;53.362;-1.518;2024-03-29T05:37:49;96020.34;;;2.49;93.92
22020;BME280;51298;53.362;-1.518;2024-03-29T05:40:47;96025.75;;;2.54;93.91
22020;BME280;51298;53.362;-1.518;2024-03-29T05:43:55;96024.97;;;2.60;94.26
22020;BME280;51298;53.362;-1.518;2024-03-29T05:46:49;96026.06;;;2.79;94.32
22020;BME280;51298;53.362;-1.518;2024-03-29T05:49:56;96033.88;;;2.92;94.49
22020;BME280;51298;53.362;-1.518;2024-03-29T05:52:53;96033.50;;;3.02;94.79
22020;BME280;51298;53.362;-1.518;2024-03-29T05:56:03;96035.16;;;3.16;95.26
22020;BME280;51298;53.362;-1.518;2024-03-29T05:58:56;96037.56;;;3.25;94.89
22020;BME280;51298;53.362;-1.518;2024-03-29T06:02:10;96041.75;;;3.26;95.62
22020;BME280;51298;53.362;-1.518;2024-03-29T06:04:43;96038.97;;;3.27;95.61
22020;BME280;51298;53.362;-1.518;2024-03-29T06:07:31;96038.81;;;3.35;95.56
22020;BME280;51298;53.362;-1.518;2024-03-29T06:10:06;96035.84;;;3.45;95.23
22020;BME280;51298;53.362;-1.518;2024-03-29T06:12:53;96041.25;;;3.63;95.44
22020;BME280;51298;53.362;-1.518;2024-03-29T06:15:26;96027.16;;;3.59;95.10
22020;BME280;51298;53.362;-1.518;2024-03-29T06:18:34;96021.41;;;3.71;94.90
22020;BME280;51298;53.362;-1.518;2024-03-29T06:21:07;96023.38;;;3.68;94.70
22020;BME280;51298;53.362;-1.518;2024-03-29T06:23:54;96028.16;;;3.72;94.24
22020;BME280;51298;53.362;-1.518;2024-03-29T06:26:26;96030.78;;;3.85;94.18
22020;BME280;51298;53.362;-1.518;2024-03-29T06:29:12;96023.06;;;4.11;93.93
22020;BME280;51298;53.362;-1.518;2024-03-29T06:31:45;96027.63;;;4.16;93.25
22020;BME280;51298;53.362;-1.518;2024-03-29T06:34:32;96035.56;;;4.34;93.00
22020;BME280;51298;53.362;-1.518;2024-03-29T06:37:05;96041.88;;;4.45;91.84
22020;BME280;51298;53.362;-1.518;2024-03-29T06:39:51;96055.03;;;4.44;91.79
22020;BME280;51298;53.362;-1.518;2024-03-29T06:42:24;96057.22;;;4.40;91.90
22020;BME280;51298;53.362;-1.518;2024-03-29T06:45:10;96051.44;;;4.38;91.31
22020;BME280;51298;53.362;-1.518;2024-03-29T06:47:43;96052.84;;;4.40;91.58
22020;BME280;51298;53.362;-1.518;2024-03-29T06:50:34;96054.81;;;4.58;92.03
22020;BME280;51298;53.362;-1.518;2024-03-29T06:53:07;96066.53;;;4.74;91.77
22020;BME280;51298;53.362;-1.518;2024-03-29T06:55:55;96066.09;;;4.90;90.52
22020;BME280;51298;53.362;-1.518;2024-03-29T06:58:28;96056.88;;;5.59;89.45
22020;BME280;51298;53.362;-1.518;2024-03-29T07:01:13;96052.03;;;6.08;85.33
22020;BME280;51298;53.362;-1.518;2024-03-29T07:03:45;96052.47;;;5.98;84.31
22020;BME280;51298;53.362;-1.518;2024-03-29T07:06:34;96053.44;;;5.27;85.42
22020;BME280;51298;53.362;-1.518;2024-03-29T07:09:10;96052.44;;;5.22;87.29
22020;BME280;51298;53.362;-1.518;2024-03-29T07:11:56;96065.03;;;5.11;88.07
22020;BME280;51298;53.362;-1.518;2024-03-29T07:14:33;96065.44;;;5.08;88.53
22020;BME280;51298;53.362;-1.518;2024-03-29T07:17:19;96060.59;;;5.32;88.55
22020;BME280;51298;53.362;-1.518;2024-03-29T07:19:52;96057.78;;;5.33;87.44
22020;BME280;51298;53.362;-1.518;2024-03-29T07:22:38;96061.00;;;5.29;88.20
22020;BME280;51298;53.362;-1.518;2024-03-29T07:25:11;96055.66;;;5.24;88.87
22020;BME280;51298;53.362;-1.518;2024-03-29T07:27:57;96062.22;;;5.20;89.38
22020;BME280;51298;53.362;-1.518;2024-03-29T07:30:35;96057.59;;;5.28;89.31
22020;BME280;51298;53.362;-1.518;2024-03-29T07:33:22;96060.19;;;5.35;89.57
22020;BME280;51298;53.362;-1.518;2024-03-29T07:36:00;96064.97;;;5.31;89.17
22020;BME280;51298;53.362;-1.518;2024-03-29T07:38:48;96066.56;;;5.32;89.26
22020;BME280;51298;53.362;-1.518;2024-03-29T07:41:20;96057.41;;;5.30;89.42
22020;BME280;51298;53.362;-1.518;2024-03-29T07:44:10;96066.53;;;5.39;88.71
22020;BME280;51298;53.362;-1.518;2024-03-29T07:46:43;96059.88;;;5.56;88.86
22020;BME280;51298;53.362;-1.518;2024-03-29T07:49:29;96056.19;;;5.77;89.06
22020;BME280;51298;53.362;-1.518;2024-03-29T07:52:05;96060.25;;;5.98;88.50
22020;BME280;51298;53.362;-1.518;2024-03-29T07:54:51;96065.00;;;6.08;87.73
22020;BME280;51298;53.362;-1.518;2024-03-29T07:57:24;96071.81;;;5.96;88.13
22020;BME280;51298;53.362;-1.518;2024-03-29T08:00:10;96074.59;;;6.01;87.38
22020;BME280;51298;53.362;-1.518;2024-03-29T08:02:43;96068.81;;;5.99;87.75
22020;BME280;51298;53.362;-1.518;2024-03-29T08:05:31;96078.63;;;5.97;87.60
22020;BME280;51298;53.362;-1.518;2024-03-29T08:08:04;96088.38;;;5.95;87.66
22020;BME280;51298;53.362;-1.518;2024-03-29T08:10:50;96089.59;;;5.85;88.26
22020;BME280;51298;53.362;-1.518;2024-03-29T08:13:25;96094.63;;;5.80;89.19
22020;BME280;51298;53.362;-1.518;2024-03-29T08:16:11;96091.44;;;5.78;89.09
22020;BME280;51298;53.362;-1.518;2024-03-29T08:18:47;96089.63;;;5.79;89.35
22020;BME280;51298;53.362;-1.518;2024-03-29T08:21:34;96094.19;;;5.83;89.39
22020;BME280;51298;53.362;-1.518;2024-03-29T08:24:07;96098.78;;;5.81;90.17
22020;BME280;51298;53.362;-1.518;2024-03-29T08:26:53;96107.00;;;5.72;89.40
22020;BME280;51298;53.362;-1.518;2024-03-29T08:29:26;96104.16;;;5.80;89.63
22020;BME280;51298;53.362;-1.518;2024-03-29T08:32:12;96100.75;;;5.86;89.97
22020;BME280;51298;53.362;-1.518;2024-03-29T08:34:44;96105.53;;;5.89;90.10
22020;BME280;51298;53.362;-1.518;2024-03-29T08:37:34;96096.75;;;5.90;90.37
22020;BME280;51298;53.362;-1.518;2024-03-29T08:40:07;96107.50;;;6.00;90.50
22020;BME280;51298;53.362;-1.518;2024-03-29T08:42:53;96111.03;;;6.06;90.81
22020;BME280;51298;53.362;-1.518;2024-03-29T08:45:26;96113.59;;;6.13;91.28
22020;BME280;51298;53.362;-1.518;2024-03-29T08:48:12;96111.34;;;6.23;91.81
22020;BME280;51298;53.362;-1.518;2024-03-29T08:50:44;96107.91;;;6.22;91.34
22020;BME280;51298;53.362;-1.518;2024-03-29T08:53:33;96117.44;;;6.35;91.45
22020;BME280;51298;53.362;-1.518;2024-03-29T08:56:06;96112.47;;;6.58;91.92
22020;BME280;51298;53.362;-1.518;2024-03-29T08:58:53;96112.19;;;6.67;91.57
22020;BME280;51298;53.362;-1.518;2024-03-29T09:01:27;96112.19;;;6.67;92.06
22020;BME280;51298;53.362;-1.518;2024-03-29T09:04:14;96108.91;;;6.78;91.16
22020;BME280;51298;53.362;-1.518;2024-03-29T09:06:48;96115.19;;;6.89;91.31
22020;BME280;51298;53.362;-1.518;2024-03-29T09:09:34;96111.06;;;6.99;91.01
22020;BME280;51298;53.362;-1.518;2024-03-29T09:12:10;96113.13;;;7.52;90.98
22020;BME280;51298;53.362;-1.518;2024-03-29T09:14:57;96114.56;;;7.30;87.82
22020;BME280;51298;53.362;-1.518;2024-03-29T09:17:32;96111.19;;;7.48;88.81
22020;BME280;51298;53.362;-1.518;2024-03-29T09:20:18;96113.41;;;7.63;88.55
22020;BME280;51298;53.362;-1.518;2024-03-29T09:22:51;96114.13;;;7.51;88.48
22020;BME280;51298;53.362;-1.518;2024-03-29T09:25:40;96120.34;;;7.50;88.17
22020;BME280;51298;53.362;-1.518;2024-03-29T09:28:12;96117.53;;;7.52;87.80
22020;BME280;51298;53.362;-1.518;2024-03-29T09:31:02;96121.34;;;7.31;87.67
22020;BME280;51298;53.362;-1.518;2024-03-29T09:33:35;96121.34;;;7.31;87.76
22020;BME280;51298;53.362;-1.518;2024-03-29T09:36:21;96125.00;;;7.42;87.92
22020;BME280;51298;53.362;-1.518;2024-03-29T09:38:57;96122.50;;;7.53;88.22
22020;BME280;51298;53.362;-1.518;2024-03-29T09:41:45;96125.78;;;7.79;88.02
22020;BME280;51298;53.362;-1.518;2024-03-29T09:44:17;96118.75;;;7.98;86.32
22020;BME280;51298;53.362;-1.518;2024-03-29T09:47:04;96126.50;;;8.16;86.00
22020;BME280;51298;53.362;-1.518;2024-03-29T09:49:37;96127.28;;;8.47;84.68
22020;BME280;51298;53.362;-1.518;2024-03-29T09:52:25;96126.06;;;8.49;83.67
22020;BME280;51298;53.362;-1.518;2024-03-29T09:55:00;96128.31;;;8.46;83.42
22020;BME280;51298;53.362;-1.518;2024-03-29T09:57:47;96136.31;;;8.44;83.10
22020;BME280;51298;53.362;-1.518;2024-03-29T10:00:20;96135.81;;;8.36;82.67
22020;BME280;51298;53.362;-1.518;2024-03-29T10:03:10;96130.69;;;8.59;83.20
22020;BME280;51298;53.362;-1.518;2024-03-29T10:05:46;96138.16;;;8.67;81.69
22020;BME280;51298;53.362;-1.518;2024-03-29T10:08:34;96143.38;;;8.67;81.35
22020;BME280;51298;53.362;-1.518;2024-03-29T10:11:08;96148.28;;;8.45;82.80
22020;BME280;51298;53.362;-1.518;2024-03-29T10:13:58;96150.47;;;8.60;82.53
22020;BME280;51298;53.362;-1.518;2024-03-29T10:16:31;96148.38;;;9.16;81.61
22020;BME280;51298;53.362;-1.518;2024-03-29T10:19:17;96152.88;;;9.44;80.54
22020;BME280;51298;53.362;-1.518;2024-03-29T10:21:50;96154.66;;;9.67;78.54
22020;BME280;51298;53.362;-1.518;2024-03-29T10:24:39;96159.53;;;9.63;78.95
22020;BME280;51298;53.362;-1.518;2024-03-29T10:27:14;96159.41;;;9.70;77.49
22020;BME280;51298;53.362;-1.518;2024-03-29T10:30:01;96161.16;;;9.93;77.53
22020;BME280;51298;53.362;-1.518;2024-03-29T10:32:39;96164.84;;;10.09;76.89
22020;BME280;51298;53.362;-1.518;2024-03-29T10:35:25;96159.16;;;9.71;76.86
22020;BME280;51298;53.362;-1.518;2024-03-29T10:38:02;96156.13;;;9.63;77.58
22020;BME280;51298;53.362;-1.518;2024-03-29T10:40:49;96165.66;;;9.45;78.97
22020;BME280;51298;53.362;-1.518;2024-03-29T10:43:24;96154.13;;;9.18;79.03
22020;BME280;51298;53.362;-1.518;2024-03-29T10:46:10;96160.47;;;9.22;80.86
22020;BME280;51298;53.362;-1.518;2024-03-29T10:48:46;96169.53;;;9.54;78.23
22020;BME280;51298;53.362;-1.518;2024-03-29T10:51:39;96162.81;;;9.59;79.20
22020;BME280;51298;53.362;-1.518;2024-03-29T10:54:12;96160.53;;;9.74;78.42
22020;BME280;51298;53.362;-1.518;2024-03-29T10:57:05;96155.00;;;10.56;78.53
22020;BME280;51298;53.362;-1.518;2024-03-29T11:02:55;96164.31;;;10.23;75.85
22020;BME280;51298;53.362;-1.518;2024-03-29T11:05:33;96165.03;;;10.19;75.61
22020;BME280;51298;53.362;-1.518;2024-03-29T11:08:26;96153.16;;;9.71;75.22
22020;BME280;51298;53.362;-1.518;2024-03-29T11:11:02;96160.63;;;9.15;76.62
22020;BME280;51298;53.362;-1.518;2024-03-29T11:13:53;96164.34;;;9.31;77.17
22020;BME280;51298;53.362;-1.518;2024-03-29T11:16:33;96164.69;;;9.35;77.48
22020;BME280;51298;53.362;-1.518;2024-03-29T11:19:24;96171.94;;;9.85;76.39
22020;BME280;51298;53.362;-1.518;2024-03-29T11:21:56;96164.56;;;10.50;75.56
22020;BME280;51298;53.362;-1.518;2024-03-29T11:24:43;96159.88;;;10.52;73.64
22020;BME280;51298;53.362;-1.518;2024-03-29T11:27:16;96161.13;;;10.33;74.04
22020;BME280;51298;53.362;-1.518;2024-03-29T11:30:05;96163.28;;;10.36;73.22
22020;BME280;51298;53.362;-1.518;2024-03-29T11:32:39;96159.22;;;10.29;72.62
22020;BME280;51298;53.362;-1.518;2024-03-29T11:35:26;96152.97;;;10.92;73.11
22020;BME280;51298;53.362;-1.518;2024-03-29T11:38:04;96157.53;;;10.68;71.64
22020;BME280;51298;53.362;-1.518;2024-03-29T11:41:04;96163.59;;;10.40;71.43
22020;BME280;51298;53.362;-1.518;2024-03-29T11:43:37;96160.31;;;10.78;70.76
22020;BME280;51298;53.362;-1.518;2024-03-29T11:46:24;96162.28;;;10.71;70.54
22020;BME280;51298;53.362;-1.518;2024-03-29T11:48:57;96163.72;;;10.62;69.98
22020;BME280;51298;53.362;-1.518;2024-03-29T11:51:44;96162.09;;;10.61;70.10
22020;BME280;51298;53.362;-1.518;2024-03-29T11:54:16;96166.06;;;10.63;71.90
22020;BME280;51298;53.362;-1.518;2024-03-29T11:57:04;96172.91;;;10.36;70.99
22020;BME280;51298;53.362;-1.518;2024-03-29T11:59:37;96177.31;;;10.07;69.96
22020;BME280;51298;53.362;-1.518;2024-03-29T12:02:23;96183.75;;;10.44;70.15
22020;BME280;51298;53.362;-1.518;2024-03-29T12:04:57;96177.88;;;10.66;71.64
22020;BME280;51298;53.362;-1.518;2024-03-29T12:07:45;96181.34;;;11.05;69.27
22020;BME280;51298;53.362;-1.518;2024-03-29T12:10:19;96195.84;;;11.13;71.10
22020;BME280;51298;53.362;-1.518;2024-03-29T12:13:09;96192.50;;;11.34;69.26
22020;BME280;51298;53.362;-1.518;2024-03-29T12:15:42;96192.50;;;10.84;68.06
22020;BME280;51298;53.362;-1.518;2024-03-29T12:18:32;96204.22;;;10.98;68.95
22020;BME280;51298;53.362;-1.518;2024-03-29T12:21:06;96202.25;;;11.05;69.68
22020;BME280;51298;53.362;-1.518;2024-03-29T12:23:54;96202.16;;;11.17;69.14
22020;BME280;51298;53.362;-1.518;2024-03-29T12:26:26;96205.00;;;10.98;68.31
22020;BME280;51298;53.362;-1.518;2024-03-29T12:29:13;96212.19;;;10.17;71.15
22020;BME280;51298;53.362;-1.518;2024-03-29T12:31:59;96223.63;;;9.76;75.23
22020;BME280;51298;53.362;-1.518;2024-03-29T12:34:45;96238.16;;;9.37;77.84
22020;BME280;51298;53.362;-1.518;2024-03-29T12:37:21;96237.94;;;8.61;82.49
22020;BME280;51298;53.362;-1.518;2024-03-29T12:40:07;96232.00;;;8.42;83.95
22020;BME280;51298;53.362;-1.518;2024-03-29T12:42:51;96230.13;;;8.61;83.58
22020;BME280;51298;53.362;-1.518;2024-03-29T12:45:41;96228.06;;;8.51;82.41
22020;BME280;51298;53.362;-1.518;2024-03-29T12:48:17;96219.72;;;8.13;84.59
22020;BME280;51298;53.362;-1.518;2024-03-29T12:51:03;96225.16;;;8.11;84.17
22020;BME280;51298;53.362;-1.518;2024-03-29T12:53:38;96228.06;;;8.51;85.32
22020;BME280;51298;53.362;-1.518;2024-03-29T12:56:24;96215.84;;;9.05;82.33
22020;BME280;51298;53.362;-1.518;2024-03-29T12:58:56;96215.72;;;9.71;85.19
22020;BME280;51298;53.362;-1.518;2024-03-29T13:01:44;96216.91;;;10.03;81.31
22020;BME280;51298;53.362;-1.518;2024-03-29T13:04:17;96211.81;;;10.37;82.69
22020;BME280;51298;53.362;-1.518;2024-03-29T13:07:04;96212.06;;;10.36;79.98
22020;BME280;51298;53.362;-1.518;2024-03-29T13:09:36;96213.38;;;10.67;80.27
22020;BME280;51298;53.362;-1.518;2024-03-29T13:12:22;96213.38;;;10.67;79.18
22020;BME280;51298;53.362;-1.518;2024-03-29T13:14:54;96211.81;;;10.83;80.05
22020;BME280;51298;53.362;-1.518;2024-03-29T13:17:41;96220.44;;;10.83;77.14
22020;BME280;51298;53.362;-1.518;2024-03-29T13:20:15;96221.78;;;10.69;76.23
22020;BME280;51298;53.362;-1.518;2024-03-29T13:23:02;96220.38;;;10.95;76.58
22020;BME280;51298;53.362;-1.518;2024-03-29T13:25:36;96215.84;;;10.90;75.81
22020;BME280;51298;53.362;-1.518;2024-03-29T13:28:23;96221.34;;;11.22;74.68
22020;BME280;51298;53.362;-1.518;2024-03-29T13:30:57;96210.38;;;11.42;74.08
22020;BME280;51298;53.362;-1.518;2024-03-29T13:33:43;96210.84;;;11.39;71.81
22020;BME280;51298;53.362;-1.518;2024-03-29T13:36:16;96215.16;;;11.84;72.89
22020;BME280;51298;53.362;-1.518;2024-03-29T13:39:03;96213.09;;;11.31;70.44
22020;BME280;51298;53.362;-1.518;2024-03-29T13:41:36;96220.63;;;11.27;70.91
22020;BME280;51298;53.362;-1.518;2024-03-29T13:44:22;96224.00;;;11.83;72.62
22020;BME280;51298;53.362;-1.518;2024-03-29T13:46:54;96217.41;;;11.97;67.71
22020;BME280;51298;53.362;-1.518;2024-03-29T13:49:41;96217.56;;;12.13;66.64
22020;BME280;51298;53.362;-1.518;2024-03-29T13:52:14;96211.00;;;12.10;67.52
22020;BME280;51298;53.362;-1.518;2024-03-29T13:55:02;96206.84;;;11.70;62.95
22020;BME280;51298;53.362;-1.518;2024-03-29T13:57:36;96211.38;;;12.19;65.04
22020;BME280;51298;53.362;-1.518;2024-03-29T14:00:23;96213.00;;;12.52;65.62
22020;BME280;51298;53.362;-1.518;2024-03-29T14:03:03;96205.72;;;12.54;62.19
22020;BME280;51298;53.362;-1.518;2024-03-29T14:05:49;96203.47;;;12.68;60.76
22020;BME280;51298;53.362;-1.518;2024-03-29T14:08:22;96205.75;;;12.32;58.74
22020;BME280;51298;53.362;-1.518;2024-03-29T14:11:08;96223.53;;;12.08;60.87
22020;BME280;51298;53.362;-1.518;2024-03-29T14:13:41;96213.09;;;12.08;61.36
22020;BME280;51298;53.362;-1.518;2024-03-29T14:16:32;96211.69;;;12.01;57.37
22020;BME280;51298;53.362;-1.518;2024-03-29T14:19:05;96218.78;;;11.83;58.48
22020;BME280;51298;53.362;-1.518;2024-03-29T14:21:53;96208.75;;;11.58;57.94
22020;BME280;51298;53.362;-1.518;2024-03-29T14:24:27;96220.50;;;11.56;59.74
22020;BME280;51298;53.362;-1.518;2024-03-29T14:27:16;96209.56;;;11.59;59.28
22020;BME280;51298;53.362;-1.518;2024-03-29T14:29:50;96210.97;;;11.66;58.08
22020;BME280;51298;53.362;-1.518;2024-03-29T14:32:39;96216.03;;;11.73;58.71
22020;BME280;51298;53.362;-1.518;2024-03-29T14:35:12;96214.72;;;11.54;58.67